📊 Raw Sensor Data

Showing records 38101 to 38125 of 84,924 total

ID Distance (ft) Battery V Battery A Int Temp (°F) Int Humid (%) Ext Temp (°F) Solar V RSSI SNR Time Stamp
46836 15.1 3.89 0 77 42 80 5.10 -72 8 07/20/2025 11:00 AM
46835 15.1 3.89 0 76 42 77 5.10 -71 7 07/20/2025 10:45 AM
46834 15.1 3.90 0 75 43 77 5.10 -70 8 07/20/2025 10:30 AM
46833 15.2 3.89 0 74 42 73 5.10 -70 8 07/20/2025 10:15 AM
46832 15.1 3.89 0 72 43 75 5.10 -70 7 07/20/2025 10:00 AM
46831 15.1 3.89 0 71 43 75 5.10 -71 7 07/20/2025 09:45 AM
46830 15.1 3.89 0 69 43 71 5.10 -71 8 07/20/2025 09:30 AM
46829 15.1 4.11 0 68 44 68 5.10 -69 8 07/20/2025 09:15 AM
46828 15.1 3.89 0 67 44 68 5.10 -71 7 07/20/2025 09:00 AM
46827 15.1 3.89 0 66 44 70 5.10 -71 8 07/20/2025 08:45 AM
46826 15.1 3.89 0 65 44 67 5.10 -71 8 07/20/2025 08:30 AM
46825 15.1 3.89 0 64 43 68 5.10 -71 7 07/20/2025 08:15 AM
46824 15.1 3.89 0 63 43 67 5.10 -71 7 07/20/2025 08:00 AM
46823 15.1 3.89 0 62 42 64 5.10 -69 8 07/20/2025 07:45 AM
46822 15.1 3.96 31 60 42 64 4.50 -72 8 07/20/2025 07:30 AM
46821 15.0 3.96 14 59 42 63 4.50 -69 8 07/20/2025 07:15 AM
46820 15.0 3.92 16 57 43 60 4.50 -70 8 07/20/2025 07:00 AM
46819 15.0 3.98 10 56 43 60 4.50 -71 8 07/20/2025 06:45 AM
46818 15.0 3.94 5 55 43 58 4.50 -72 8 07/20/2025 06:30 AM
46817 14.9 3.76 -35 54 43 56 4.60 -70 8 07/20/2025 06:15 AM
46816 15.0 3.75 -10 54 43 55 4.00 -70 8 07/20/2025 06:00 AM
46815 15.0 3.75 -5 54 44 55 1.30 -71 8 07/20/2025 05:45 AM
46814 15.0 3.75 -5 54 44 55 0.00 -71 8 07/20/2025 05:30 AM
46813 15.0 3.77 -5 54 44 55 0.00 -72 7 07/20/2025 05:15 AM
46812 15.0 3.90 -5 54 44 55 0.00 -71 8 07/20/2025 05:00 AM